Indianapolis, IN

9:51 PM EDT on May 27, 2017 (GMT -0400)
Indianapolis International | | Change Station
Active Advisory: Flood Warning

Elev 794 ft 39.72 °N, 86.29 °W | Updated 57 minutes ago

Mostly Cloudy
Mostly Cloudy
73 °F
Feels Like 73 °F
N
8
Wind Variable Wind from North

Today
High -- | Low -- °F
--% Chance of Precip.
Yesterday
High -- | Low -- °F
Precip. -- in
Pressure 29.84 in
Visibility 10.0 miles
Clouds Few 3200 ft
Mostly Cloudy 25000 ft
Dew Point 63 °F
Humidity 71%
Rainfall 0.00 in
Snow Depth Not available.
6:21 AM 9:03 PM
Waxing Crescent, 8% visible
METAR KIND 280054Z 36007KT 10SM FEW032 BKN250 23/17 A2985 RMK AO2 SLP103 CB DSNT SE-SW MOV E T02280172
Pressure 29.84 in
Visibility 10.0 miles
Clouds Few 3200 ft
Mostly Cloudy 25000 ft
Dew Point 63 °F
Humidity 71%
Rainfall 0.00 in
Snow Depth Not available.
6:21 AM 9:03 PM
Waxing Crescent, 8% visible
METAR KIND 280054Z 36007KT 10SM FEW032 BKN250 23/17 A2985 RMK AO2 SLP103 CB DSNT SE-SW MOV E T02280172

Get Your Daily Forecast Email!

Thanks for signing up!

Be on the lookout for a verification email in your inbox.

You'll start receiving severe weather alerts in your inbox..

×

10-Day Weather Forecast

Almanac

Astronomy

May. 27, 2017 Rise Set
Actual Time
Civil Twilight
Nautical Twilight
Astronomical Twilight
Moon
Length of Visible Light
Length of Day
Tomorrow will be .
, % of the Moon is Illuminated

Today's Extremes

State Highs State Lows

Community

WunderPhotos

Category 6

Welcome to Category 6. This is the collective home for Weather Underground's featured writeups by Dr. Jeff Masters (right), Bob Henson (left), Chris Burt, and other regular contributors.

Nearby

Air Quality

  Air Quality AQ Index Pollutant
Not available.

Snow Depth

Station Depth Elevation

Earthquake Activity

City Distance Mag. Time & Date
Minimum magnitude displayed is 2.5.

Coastal Water Temperatures

Place Temperature

Stations

Nearby Weather Stations

Station Location Temp. Windchill Dew Point Humidity Wind Precip. Elev Updated Type
                   

Watches & Warnings

Flood Warning
Issued: 11:42 AM EDT May. 27, 2017 – National Weather Service

The Flood Warning continues for
the White River at Ravenswood.
* Until late tonight.
* Flood stage is 6.0 feet.
* Forecast... the river is forecast to have a maximum value of 6.1
feet this afternoon.
* At 6.0 feet... lowest portion of Ravenswood begins to flood.


Lat... Lon 3991 8609 3987 8613 3981 8619 3982 8621
      3988 8616 3991 8611